sensor_id;sensor_type;location;lat;lon;timestamp;temperature;humidity
29775;DHT22;16676;51.202;6.774;2023-04-12T00:02:38;19.70;67.30
29775;DHT22;16676;51.202;6.774;2023-04-12T00:06:43;19.70;67.40
29775;DHT22;16676;51.202;6.774;2023-04-12T00:10:48;19.70;67.40
29775;DHT22;16676;51.202;6.774;2023-04-12T00:14:50;19.60;67.50
29775;DHT22;16676;51.202;6.774;2023-04-12T00:18:52;19.60;67.50
29775;DHT22;16676;51.202;6.774;2023-04-12T00:22:55;19.60;67.60
29775;DHT22;16676;51.202;6.774;2023-04-12T00:26:57;19.60;67.80
29775;DHT22;16676;51.202;6.774;2023-04-12T00:31:01;19.60;67.60
29775;DHT22;16676;51.202;6.774;2023-04-12T00:35:03;19.60;67.70
29775;DHT22;16676;51.202;6.774;2023-04-12T00:39:07;19.60;68.00
29775;DHT22;16676;51.202;6.774;2023-04-12T00:43:09;19.50;67.90
29775;DHT22;16676;51.202;6.774;2023-04-12T00:47:15;19.50;67.80
29775;DHT22;16676;51.202;6.774;2023-04-12T00:51:17;19.50;67.90
29775;DHT22;16676;51.202;6.774;2023-04-12T00:55:23;19.40;67.80
29775;DHT22;16676;51.202;6.774;2023-04-12T00:59:25;19.40;67.80
29775;DHT22;16676;51.202;6.774;2023-04-12T01:03:27;19.40;67.90
29775;DHT22;16676;51.202;6.774;2023-04-12T01:07:39;19.30;67.80
29775;DHT22;16676;51.202;6.774;2023-04-12T01:11:54;19.40;68.00
29775;DHT22;16676;51.202;6.774;2023-04-12T01:16:00;19.30;67.80
29775;DHT22;16676;51.202;6.774;2023-04-12T01:20:05;19.30;67.60
29775;DHT22;16676;51.202;6.774;2023-04-12T01:24:22;19.30;67.70
29775;DHT22;16676;51.202;6.774;2023-04-12T01:28:32;19.30;67.70
29775;DHT22;16676;51.202;6.774;2023-04-12T01:32:35;19.30;67.80
29775;DHT22;16676;51.202;6.774;2023-04-12T01:36:40;19.30;67.80
29775;DHT22;16676;51.202;6.774;2023-04-12T01:40:44;19.30;67.80
29775;DHT22;16676;51.202;6.774;2023-04-12T01:44:48;19.30;67.80
29775;DHT22;16676;51.202;6.774;2023-04-12T01:48:52;19.30;67.80
29775;DHT22;16676;51.202;6.774;2023-04-12T01:53:00;19.30;67.80
29775;DHT22;16676;51.202;6.774;2023-04-12T01:57:04;19.30;68.00
29775;DHT22;16676;51.202;6.774;2023-04-12T02:01:10;19.30;67.90
29775;DHT22;16676;51.202;6.774;2023-04-12T02:05:13;19.20;67.90
29775;DHT22;16676;51.202;6.774;2023-04-12T02:09:15;19.20;67.80
29775;DHT22;16676;51.202;6.774;2023-04-12T02:13:17;19.20;67.80
29775;DHT22;16676;51.202;6.774;2023-04-12T02:17:21;19.20;67.80
29775;DHT22;16676;51.202;6.774;2023-04-12T02:21:23;19.20;67.80
29775;DHT22;16676;51.202;6.774;2023-04-12T02:25:25;19.20;68.40
29775;DHT22;16676;51.202;6.774;2023-04-12T02:29:27;19.20;67.60
29775;DHT22;16676;51.202;6.774;2023-04-12T02:33:31;19.20;67.70
29775;DHT22;16676;51.202;6.774;2023-04-12T02:37:32;19.10;67.80
29775;DHT22;16676;51.202;6.774;2023-04-12T02:41:35;19.10;67.80
29775;DHT22;16676;51.202;6.774;2023-04-12T02:45:37;19.10;67.80
29775;DHT22;16676;51.202;6.774;2023-04-12T02:49:40;19.10;67.80
29775;DHT22;16676;51.202;6.774;2023-04-12T02:53:42;19.10;67.70
29775;DHT22;16676;51.202;6.774;2023-04-12T02:57:44;19.10;67.70
29775;DHT22;16676;51.202;6.774;2023-04-12T03:01:47;19.10;67.70
29775;DHT22;16676;51.202;6.774;2023-04-12T03:05:50;19.10;67.70
29775;DHT22;16676;51.202;6.774;2023-04-12T03:09:53;19.00;67.80
29775;DHT22;16676;51.202;6.774;2023-04-12T03:13:55;19.00;67.80
29775;DHT22;16676;51.202;6.774;2023-04-12T03:17:56;19.00;67.90
29775;DHT22;16676;51.202;6.774;2023-04-12T03:22:00;19.00;67.80
29775;DHT22;16676;51.202;6.774;2023-04-12T03:26:02;19.00;67.70
29775;DHT22;16676;51.202;6.774;2023-04-12T03:30:06;19.00;67.80
29775;DHT22;16676;51.202;6.774;2023-04-12T03:34:08;19.00;67.80
29775;DHT22;16676;51.202;6.774;2023-04-12T03:38:11;19.00;67.90
29775;DHT22;16676;51.202;6.774;2023-04-12T03:42:13;19.00;68.10
29775;DHT22;16676;51.202;6.774;2023-04-12T03:46:15;18.90;68.10
29775;DHT22;16676;51.202;6.774;2023-04-12T03:50:17;18.90;68.10
29775;DHT22;16676;51.202;6.774;2023-04-12T03:54:21;18.90;68.10
29775;DHT22;16676;51.202;6.774;2023-04-12T03:58:24;18.90;68.20
29775;DHT22;16676;51.202;6.774;2023-04-12T04:02:26;18.90;68.00
29775;DHT22;16676;51.202;6.774;2023-04-12T04:06:28;18.90;68.10
29775;DHT22;16676;51.202;6.774;2023-04-12T04:10:32;18.90;68.00
29775;DHT22;16676;51.202;6.774;2023-04-12T04:14:34;18.90;68.00
29775;DHT22;16676;51.202;6.774;2023-04-12T04:18:36;18.90;67.90
29775;DHT22;16676;51.202;6.774;2023-04-12T04:22:38;18.80;68.00
29775;DHT22;16676;51.202;6.774;2023-04-12T04:26:43;18.90;68.00
29775;DHT22;16676;51.202;6.774;2023-04-12T04:30:45;18.90;68.20
29775;DHT22;16676;51.202;6.774;2023-04-12T04:34:47;18.90;68.30
29775;DHT22;16676;51.202;6.774;2023-04-12T04:38:49;18.80;68.40
29775;DHT22;16676;51.202;6.774;2023-04-12T04:42:52;18.80;68.70
29775;DHT22;16676;51.202;6.774;2023-04-12T04:46:54;18.80;68.70
29775;DHT22;16676;51.202;6.774;2023-04-12T04:50:59;18.80;68.70
29775;DHT22;16676;51.202;6.774;2023-04-12T04:55:01;18.80;68.60
29775;DHT22;16676;51.202;6.774;2023-04-12T04:59:04;18.80;68.70
29775;DHT22;16676;51.202;6.774;2023-04-12T05:03:07;18.80;68.70
29775;DHT22;16676;51.202;6.774;2023-04-12T05:07:08;18.80;69.10
29775;DHT22;16676;51.202;6.774;2023-04-12T05:11:10;18.80;69.00
29775;DHT22;16676;51.202;6.774;2023-04-12T05:15:13;18.80;69.10
29775;DHT22;16676;51.202;6.774;2023-04-12T05:19:15;18.80;69.10
29775;DHT22;16676;51.202;6.774;2023-04-12T05:23:17;18.80;68.90
29775;DHT22;16676;51.202;6.774;2023-04-12T05:27:19;18.80;69.10
29775;DHT22;16676;51.202;6.774;2023-04-12T05:31:23;18.90;69.00
29775;DHT22;16676;51.202;6.774;2023-04-12T05:35:25;18.90;69.00
29775;DHT22;16676;51.202;6.774;2023-04-12T05:39:27;18.90;69.10
29775;DHT22;16676;51.202;6.774;2023-04-12T05:43:29;18.80;68.90
29775;DHT22;16676;51.202;6.774;2023-04-12T05:47:32;18.90;69.00
29775;DHT22;16676;51.202;6.774;2023-04-12T05:51:34;18.90;69.00
29775;DHT22;16676;51.202;6.774;2023-04-12T05:55:36;18.80;69.30
29775;DHT22;16676;51.202;6.774;2023-04-12T05:59:38;18.80;69.20
29775;DHT22;16676;51.202;6.774;2023-04-12T06:03:42;18.80;69.20
29775;DHT22;16676;51.202;6.774;2023-04-12T06:07:44;18.80;69.50
29775;DHT22;16676;51.202;6.774;2023-04-12T06:11:47;18.80;69.70
29775;DHT22;16676;51.202;6.774;2023-04-12T06:15:49;18.80;69.90
29775;DHT22;16676;51.202;6.774;2023-04-12T06:19:52;18.80;69.70
29775;DHT22;16676;51.202;6.774;2023-04-12T06:23:54;18.80;69.60
29775;DHT22;16676;51.202;6.774;2023-04-12T06:27:56;18.80;69.80
29775;DHT22;16676;51.202;6.774;2023-04-12T06:31:58;18.80;69.70
29775;DHT22;16676;51.202;6.774;2023-04-12T06:36:01;18.80;69.80
29775;DHT22;16676;51.202;6.774;2023-04-12T06:40:04;18.80;70.00
29775;DHT22;16676;51.202;6.774;2023-04-12T06:44:06;18.80;69.90
29775;DHT22;16676;51.202;6.774;2023-04-12T06:48:08;18.70;69.90
29775;DHT22;16676;51.202;6.774;2023-04-12T06:52:12;18.70;69.90
29775;DHT22;16676;51.202;6.774;2023-04-12T06:56:14;18.70;69.80
29775;DHT22;16676;51.202;6.774;2023-04-12T07:00:16;18.70;69.90
29775;DHT22;16676;51.202;6.774;2023-04-12T07:04:18;18.70;69.60
29775;DHT22;16676;51.202;6.774;2023-04-12T07:08:21;18.70;69.70
29775;DHT22;16676;51.202;6.774;2023-04-12T07:12:23;18.70;69.60
29775;DHT22;16676;51.202;6.774;2023-04-12T07:16:25;18.70;69.70
29775;DHT22;16676;51.202;6.774;2023-04-12T07:20:27;18.70;69.60
29775;DHT22;16676;51.202;6.774;2023-04-12T07:24:30;18.70;69.70
29775;DHT22;16676;51.202;6.774;2023-04-12T07:28:32;18.70;69.50
29775;DHT22;16676;51.202;6.774;2023-04-12T07:32:35;18.70;69.40
29775;DHT22;16676;51.202;6.774;2023-04-12T07:36:37;18.70;69.40
29775;DHT22;16676;51.202;6.774;2023-04-12T07:40:40;18.70;69.40
29775;DHT22;16676;51.202;6.774;2023-04-12T07:44:42;18.70;69.40
29775;DHT22;16676;51.202;6.774;2023-04-12T07:48:44;18.70;69.60
29775;DHT22;16676;51.202;6.774;2023-04-12T07:52:46;18.70;69.50
29775;DHT22;16676;51.202;6.774;2023-04-12T07:57:00;18.70;69.60
29775;DHT22;16676;51.202;6.774;2023-04-12T08:01:03;18.60;69.70
29775;DHT22;16676;51.202;6.774;2023-04-12T08:05:06;18.60;69.80
29775;DHT22;16676;51.202;6.774;2023-04-12T08:09:08;18.60;69.60
29775;DHT22;16676;51.202;6.774;2023-04-12T08:13:11;18.60;69.80
29775;DHT22;16676;51.202;6.774;2023-04-12T08:17:13;18.60;69.60
29775;DHT22;16676;51.202;6.774;2023-04-12T08:21:16;18.60;69.70
29775;DHT22;16676;51.202;6.774;2023-04-12T08:25:18;18.60;69.70
29775;DHT22;16676;51.202;6.774;2023-04-12T08:29:22;18.60;69.70
29775;DHT22;16676;51.202;6.774;2023-04-12T08:33:24;18.60;69.80
29775;DHT22;16676;51.202;6.774;2023-04-12T08:37:26;18.60;69.70
29775;DHT22;16676;51.202;6.774;2023-04-12T08:41:28;18.60;69.60
29775;DHT22;16676;51.202;6.774;2023-04-12T08:45:32;18.60;69.70
29775;DHT22;16676;51.202;6.774;2023-04-12T08:49:36;18.60;69.70
29775;DHT22;16676;51.202;6.774;2023-04-12T08:53:38;18.60;69.60
29775;DHT22;16676;51.202;6.774;2023-04-12T08:57:41;18.60;69.50
29775;DHT22;16676;51.202;6.774;2023-04-12T09:01:44;18.60;69.60
29775;DHT22;16676;51.202;6.774;2023-04-12T09:05:46;18.60;69.60
29775;DHT22;16676;51.202;6.774;2023-04-12T09:09:49;18.60;69.70
29775;DHT22;16676;51.202;6.774;2023-04-12T09:13:52;18.50;69.80
29775;DHT22;16676;51.202;6.774;2023-04-12T09:18:04;18.60;69.90
29775;DHT22;16676;51.202;6.774;2023-04-12T09:22:07;18.50;69.80
29775;DHT22;16676;51.202;6.774;2023-04-12T09:26:25;18.60;69.90
29775;DHT22;16676;51.202;6.774;2023-04-12T09:30:28;18.60;70.00
29775;DHT22;16676;51.202;6.774;2023-04-12T09:34:32;18.60;69.90
29775;DHT22;16676;51.202;6.774;2023-04-12T09:38:34;18.60;69.80
29775;DHT22;16676;51.202;6.774;2023-04-12T09:42:50;18.60;69.70
29775;DHT22;16676;51.202;6.774;2023-04-12T09:46:52;18.60;69.70
29775;DHT22;16676;51.202;6.774;2023-04-12T09:50:58;18.60;69.60
29775;DHT22;16676;51.202;6.774;2023-04-12T09:55:02;18.60;69.60
29775;DHT22;16676;51.202;6.774;2023-04-12T09:59:05;18.60;69.80
29775;DHT22;16676;51.202;6.774;2023-04-12T10:03:08;18.60;69.80
29775;DHT22;16676;51.202;6.774;2023-04-12T10:07:11;18.60;69.80
29775;DHT22;16676;51.202;6.774;2023-04-12T10:11:13;18.60;69.90
29775;DHT22;16676;51.202;6.774;2023-04-12T10:15:16;18.60;69.60
29775;DHT22;16676;51.202;6.774;2023-04-12T10:19:20;18.60;69.70
29775;DHT22;16676;51.202;6.774;2023-04-12T10:23:25;18.60;69.80
29775;DHT22;16676;51.202;6.774;2023-04-12T10:27:27;18.60;69.70
29775;DHT22;16676;51.202;6.774;2023-04-12T10:31:29;18.50;70.00
29775;DHT22;16676;51.202;6.774;2023-04-12T10:35:48;18.60;69.90
29775;DHT22;16676;51.202;6.774;2023-04-12T10:39:54;18.60;69.90
29775;DHT22;16676;51.202;6.774;2023-04-12T10:44:23;18.60;69.90
29775;DHT22;16676;51.202;6.774;2023-04-12T10:48:29;18.60;69.90
29775;DHT22;16676;51.202;6.774;2023-04-12T10:52:31;18.60;69.90
29775;DHT22;16676;51.202;6.774;2023-04-12T10:56:37;18.60;69.90
29775;DHT22;16676;51.202;6.774;2023-04-12T11:01:10;18.60;69.90
29775;DHT22;16676;51.202;6.774;2023-04-12T11:05:12;18.60;69.90
29775;DHT22;16676;51.202;6.774;2023-04-12T11:09:19;18.60;70.00
29775;DHT22;16676;51.202;6.774;2023-04-12T11:13:25;18.60;69.90
29775;DHT22;16676;51.202;6.774;2023-04-12T11:17:27;18.70;69.70
29775;DHT22;16676;51.202;6.774;2023-04-12T11:21:29;18.70;69.50
29775;DHT22;16676;51.202;6.774;2023-04-12T11:25:32;18.70;69.60
29775;DHT22;16676;51.202;6.774;2023-04-12T11:29:35;18.70;69.70
29775;DHT22;16676;51.202;6.774;2023-04-12T11:33:38;18.70;69.60
29775;DHT22;16676;51.202;6.774;2023-04-12T11:37:41;18.70;69.40
29775;DHT22;16676;51.202;6.774;2023-04-12T11:41:44;18.70;69.00
29775;DHT22;16676;51.202;6.774;2023-04-12T11:45:47;18.80;68.90
29775;DHT22;16676;51.202;6.774;2023-04-12T11:49:50;18.90;68.40
29775;DHT22;16676;51.202;6.774;2023-04-12T11:53:53;19.00;68.40
29775;DHT22;16676;51.202;6.774;2023-04-12T11:57:55;19.00;68.20
29775;DHT22;16676;51.202;6.774;2023-04-12T12:02:01;19.00;68.30
29775;DHT22;16676;51.202;6.774;2023-04-12T12:06:04;19.00;68.40
29775;DHT22;16676;51.202;6.774;2023-04-12T12:10:08;19.00;68.40
29775;DHT22;16676;51.202;6.774;2023-04-12T12:14:10;19.00;68.10
29775;DHT22;16676;51.202;6.774;2023-04-12T12:18:13;19.00;68.40
29775;DHT22;16676;51.202;6.774;2023-04-12T12:22:17;19.00;68.30
29775;DHT22;16676;51.202;6.774;2023-04-12T12:26:20;19.10;68.40
29775;DHT22;16676;51.202;6.774;2023-04-12T12:30:22;19.00;68.10
29775;DHT22;16676;51.202;6.774;2023-04-12T12:34:30;19.00;68.10
29775;DHT22;16676;51.202;6.774;2023-04-12T12:38:34;19.10;69.00
29775;DHT22;16676;51.202;6.774;2023-04-12T12:42:44;19.10;68.10
29775;DHT22;16676;51.202;6.774;2023-04-12T12:46:46;19.00;68.30
29775;DHT22;16676;51.202;6.774;2023-04-12T12:50:49;19.00;68.10
29775;DHT22;16676;51.202;6.774;2023-04-12T12:54:51;19.10;68.20
29775;DHT22;16676;51.202;6.774;2023-04-12T12:58:53;19.10;68.20
29775;DHT22;16676;51.202;6.774;2023-04-12T13:02:55;19.10;68.20
29775;DHT22;16676;51.202;6.774;2023-04-12T13:06:59;19.10;68.00
29775;DHT22;16676;51.202;6.774;2023-04-12T13:11:01;19.10;67.90
29775;DHT22;16676;51.202;6.774;2023-04-12T13:15:04;19.20;67.80
29775;DHT22;16676;51.202;6.774;2023-04-12T13:19:07;19.20;67.90
29775;DHT22;16676;51.202;6.774;2023-04-12T13:23:10;19.20;67.50
29775;DHT22;16676;51.202;6.774;2023-04-12T13:27:13;19.30;67.60
29775;DHT22;16676;51.202;6.774;2023-04-12T13:31:15;19.30;67.40
29775;DHT22;16676;51.202;6.774;2023-04-12T13:35:17;19.30;67.40
29775;DHT22;16676;51.202;6.774;2023-04-12T13:39:20;19.30;67.20
29775;DHT22;16676;51.202;6.774;2023-04-12T13:43:22;19.30;67.40
29775;DHT22;16676;51.202;6.774;2023-04-12T13:47:25;19.30;67.40
29775;DHT22;16676;51.202;6.774;2023-04-12T13:51:27;19.30;67.50
29775;DHT22;16676;51.202;6.774;2023-04-12T13:55:30;19.20;67.50
29775;DHT22;16676;51.202;6.774;2023-04-12T13:59:32;19.30;67.40
29775;DHT22;16676;51.202;6.774;2023-04-12T14:03:34;19.30;67.60
29775;DHT22;16676;51.202;6.774;2023-04-12T14:07:36;19.30;67.70
29775;DHT22;16676;51.202;6.774;2023-04-12T14:11:46;19.20;67.60
29775;DHT22;16676;51.202;6.774;2023-04-12T14:15:49;19.20;67.70
29775;DHT22;16676;51.202;6.774;2023-04-12T14:19:51;19.20;67.80
29775;DHT22;16676;51.202;6.774;2023-04-12T14:23:53;19.20;68.00
29775;DHT22;16676;51.202;6.774;2023-04-12T14:27:57;19.20;67.90
29775;DHT22;16676;51.202;6.774;2023-04-12T14:31:58;19.10;67.80
29775;DHT22;16676;51.202;6.774;2023-04-12T14:36:00;19.20;68.00
29775;DHT22;16676;51.202;6.774;2023-04-12T14:40:05;19.20;67.90
29775;DHT22;16676;51.202;6.774;2023-04-12T14:44:09;19.20;67.80
29775;DHT22;16676;51.202;6.774;2023-04-12T14:48:11;19.20;67.90
29775;DHT22;16676;51.202;6.774;2023-04-12T14:52:13;19.20;67.70
29775;DHT22;16676;51.202;6.774;2023-04-12T14:56:16;19.20;67.50
29775;DHT22;16676;51.202;6.774;2023-04-12T15:00:21;19.30;67.40
29775;DHT22;16676;51.202;6.774;2023-04-12T15:04:23;19.30;67.50
29775;DHT22;16676;51.202;6.774;2023-04-12T15:08:25;19.30;67.60
29775;DHT22;16676;51.202;6.774;2023-04-12T15:12:28;19.30;67.80
29775;DHT22;16676;51.202;6.774;2023-04-12T15:16:34;19.20;67.60
29775;DHT22;16676;51.202;6.774;2023-04-12T15:20:37;19.30;67.60
29775;DHT22;16676;51.202;6.774;2023-04-12T15:24:39;19.30;67.60
29775;DHT22;16676;51.202;6.774;2023-04-12T15:28:41;19.30;67.30
29775;DHT22;16676;51.202;6.774;2023-04-12T15:32:44;19.20;67.50
29775;DHT22;16676;51.202;6.774;2023-04-12T15:36:46;19.30;67.60
29775;DHT22;16676;51.202;6.774;2023-04-12T15:40:52;19.30;67.30
29775;DHT22;16676;51.202;6.774;2023-04-12T15:44:55;19.30;67.30
29775;DHT22;16676;51.202;6.774;2023-04-12T15:48:58;19.30;67.50
29775;DHT22;16676;51.202;6.774;2023-04-12T15:53:01;19.30;67.40
29775;DHT22;16676;51.202;6.774;2023-04-12T15:57:03;19.20;67.80
29775;DHT22;16676;51.202;6.774;2023-04-12T16:01:12;19.20;67.60
29775;DHT22;16676;51.202;6.774;2023-04-12T16:05:15;19.20;67.90
29775;DHT22;16676;51.202;6.774;2023-04-12T16:09:17;19.30;67.50
29775;DHT22;16676;51.202;6.774;2023-04-12T16:13:21;19.20;67.40
29775;DHT22;16676;51.202;6.774;2023-04-12T16:17:23;19.30;67.80
29775;DHT22;16676;51.202;6.774;2023-04-12T16:21:27;19.30;68.40
29775;DHT22;16676;51.202;6.774;2023-04-12T16:25:30;19.20;68.20
29775;DHT22;16676;51.202;6.774;2023-04-12T16:29:32;19.20;68.10
29775;DHT22;16676;51.202;6.774;2023-04-12T16:33:34;19.20;68.10
29775;DHT22;16676;51.202;6.774;2023-04-12T16:37:38;19.20;68.40
29775;DHT22;16676;51.202;6.774;2023-04-12T16:41:40;19.20;68.20
29775;DHT22;16676;51.202;6.774;2023-04-12T16:45:42;19.20;68.40
29775;DHT22;16676;51.202;6.774;2023-04-12T16:49:45;19.20;68.10
29775;DHT22;16676;51.202;6.774;2023-04-12T16:53:48;19.20;68.00
29775;DHT22;16676;51.202;6.774;2023-04-12T16:57:51;19.20;68.60
29775;DHT22;16676;51.202;6.774;2023-04-12T17:01:53;19.20;68.60
29775;DHT22;16676;51.202;6.774;2023-04-12T17:05:55;19.20;68.80
29775;DHT22;16676;51.202;6.774;2023-04-12T17:09:59;19.10;68.80
29775;DHT22;16676;51.202;6.774;2023-04-12T17:14:01;19.20;68.70
29775;DHT22;16676;51.202;6.774;2023-04-12T17:18:04;19.10;69.50
29775;DHT22;16676;51.202;6.774;2023-04-12T17:22:06;19.20;69.10
29775;DHT22;16676;51.202;6.774;2023-04-12T17:26:09;19.20;70.70
29775;DHT22;16676;51.202;6.774;2023-04-12T17:30:11;19.30;70.10
29775;DHT22;16676;51.202;6.774;2023-04-12T17:34:15;19.30;70.80
29775;DHT22;16676;51.202;6.774;2023-04-12T17:38:17;19.30;71.70
29775;DHT22;16676;51.202;6.774;2023-04-12T17:42:20;19.30;71.50
29775;DHT22;16676;51.202;6.774;2023-04-12T17:46:23;19.30;71.50
29775;DHT22;16676;51.202;6.774;2023-04-12T17:50:25;19.30;72.00
29775;DHT22;16676;51.202;6.774;2023-04-12T17:54:27;19.30;73.90
29775;DHT22;16676;51.202;6.774;2023-04-12T17:58:30;19.30;73.30
29775;DHT22;16676;51.202;6.774;2023-04-12T18:02:33;19.30;73.30
29775;DHT22;16676;51.202;6.774;2023-04-12T18:06:35;19.20;73.00
29775;DHT22;16676;51.202;6.774;2023-04-12T18:10:38;19.20;73.30
29775;DHT22;16676;51.202;6.774;2023-04-12T18:14:42;19.20;73.80
29775;DHT22;16676;51.202;6.774;2023-04-12T18:18:44;19.20;73.60
29775;DHT22;16676;51.202;6.774;2023-04-12T18:22:46;19.20;72.90
29775;DHT22;16676;51.202;6.774;2023-04-12T18:26:48;19.20;73.30
29775;DHT22;16676;51.202;6.774;2023-04-12T18:30:52;19.20;73.20
29775;DHT22;16676;51.202;6.774;2023-04-12T18:34:53;19.20;73.30
29775;DHT22;16676;51.202;6.774;2023-04-12T18:38:55;19.20;73.20
29775;DHT22;16676;51.202;6.774;2023-04-12T18:42:57;19.10;72.60
29775;DHT22;16676;51.202;6.774;2023-04-12T18:47:04;19.10;72.70
29775;DHT22;16676;51.202;6.774;2023-04-12T18:51:05;19.10;72.90
29775;DHT22;16676;51.202;6.774;2023-04-12T18:55:08;19.10;72.70
29775;DHT22;16676;51.202;6.774;2023-04-12T18:59:11;19.10;73.00
29775;DHT22;16676;51.202;6.774;2023-04-12T19:03:18;19.00;72.40
29775;DHT22;16676;51.202;6.774;2023-04-12T19:07:20;19.10;72.50
29775;DHT22;16676;51.202;6.774;2023-04-12T19:11:22;19.10;72.30
29775;DHT22;16676;51.202;6.774;2023-04-12T19:15:24;19.10;71.90
29775;DHT22;16676;51.202;6.774;2023-04-12T19:19:28;19.00;71.70
29775;DHT22;16676;51.202;6.774;2023-04-12T19:23:30;19.00;71.60
29775;DHT22;16676;51.202;6.774;2023-04-12T19:27:32;19.00;71.70
29775;DHT22;16676;51.202;6.774;2023-04-12T19:31:33;19.00;71.80
29775;DHT22;16676;51.202;6.774;2023-04-12T19:35:37;18.90;71.80
29775;DHT22;16676;51.202;6.774;2023-04-12T19:39:39;19.00;71.70
29775;DHT22;16676;51.202;6.774;2023-04-12T19:43:41;18.90;71.80
29775;DHT22;16676;51.202;6.774;2023-04-12T19:47:43;19.00;71.60
29775;DHT22;16676;51.202;6.774;2023-04-12T19:51:46;18.90;72.10
29775;DHT22;16676;51.202;6.774;2023-04-12T19:55:48;18.90;72.30
29775;DHT22;16676;51.202;6.774;2023-04-12T19:59:52;18.90;72.50
29775;DHT22;16676;51.202;6.774;2023-04-12T20:03:55;18.90;72.70
29775;DHT22;16676;51.202;6.774;2023-04-12T20:07:58;18.90;72.80
29775;DHT22;16676;51.202;6.774;2023-04-12T20:12:00;19.00;72.80
29775;DHT22;16676;51.202;6.774;2023-04-12T20:16:03;18.90;72.70
29775;DHT22;16676;51.202;6.774;2023-04-12T20:20:07;18.90;72.50
29775;DHT22;16676;51.202;6.774;2023-04-12T20:24:11;18.90;72.80
29775;DHT22;16676;51.202;6.774;2023-04-12T20:28:13;18.90;72.50
29775;DHT22;16676;51.202;6.774;2023-04-12T20:32:15;18.90;72.80
29775;DHT22;16676;51.202;6.774;2023-04-12T20:36:17;18.90;72.80
29775;DHT22;16676;51.202;6.774;2023-04-12T20:40:21;18.80;72.80
29775;DHT22;16676;51.202;6.774;2023-04-12T20:44:26;18.90;72.80
29775;DHT22;16676;51.202;6.774;2023-04-12T20:48:28;18.90;72.60
29775;DHT22;16676;51.202;6.774;2023-04-12T20:52:31;18.90;72.80
29775;DHT22;16676;51.202;6.774;2023-04-12T20:56:34;18.90;72.80
29775;DHT22;16676;51.202;6.774;2023-04-12T21:00:36;18.80;72.50
29775;DHT22;16676;51.202;6.774;2023-04-12T21:04:38;18.80;72.50
29775;DHT22;16676;51.202;6.774;2023-04-12T21:08:40;18.80;72.80
29775;DHT22;16676;51.202;6.774;2023-04-12T21:12:44;18.80;73.00
29775;DHT22;16676;51.202;6.774;2023-04-12T21:16:46;18.70;73.10
29775;DHT22;16676;51.202;6.774;2023-04-12T21:20:50;18.70;72.90
29775;DHT22;16676;51.202;6.774;2023-04-12T21:24:52;18.80;73.00
29775;DHT22;16676;51.202;6.774;2023-04-12T21:28:55;18.70;72.90
29775;DHT22;16676;51.202;6.774;2023-04-12T21:32:57;18.70;72.80
29775;DHT22;16676;51.202;6.774;2023-04-12T21:37:02;18.70;72.50
29775;DHT22;16676;51.202;6.774;2023-04-12T21:41:05;18.70;72.50
29775;DHT22;16676;51.202;6.774;2023-04-12T21:45:09;18.70;72.20
29775;DHT22;16676;51.202;6.774;2023-04-12T21:49:12;18.70;72.40
29775;DHT22;16676;51.202;6.774;2023-04-12T21:53:15;18.60;72.10
29775;DHT22;16676;51.202;6.774;2023-04-12T21:57:17;18.60;72.10
29775;DHT22;16676;51.202;6.774;2023-04-12T22:01:20;18.60;72.10
29775;DHT22;16676;51.202;6.774;2023-04-12T22:05:22;18.60;72.10
29775;DHT22;16676;51.202;6.774;2023-04-12T22:09:24;18.60;72.10
29775;DHT22;16676;51.202;6.774;2023-04-12T22:13:26;18.60;72.10
29775;DHT22;16676;51.202;6.774;2023-04-12T22:17:31;18.50;72.20
29775;DHT22;16676;51.202;6.774;2023-04-12T22:21:33;18.50;72.20
29775;DHT22;16676;51.202;6.774;2023-04-12T22:25:35;18.50;72.80
29775;DHT22;16676;51.202;6.774;2023-04-12T22:29:38;18.50;72.10
29775;DHT22;16676;51.202;6.774;2023-04-12T22:33:41;18.50;72.30
29775;DHT22;16676;51.202;6.774;2023-04-12T22:37:47;18.50;72.20
29775;DHT22;16676;51.202;6.774;2023-04-12T22:41:49;18.50;72.30
29775;DHT22;16676;51.202;6.774;2023-04-12T22:45:52;18.50;72.20
29775;DHT22;16676;51.202;6.774;2023-04-12T22:49:55;18.40;71.90
29775;DHT22;16676;51.202;6.774;2023-04-12T22:54:00;18.50;71.80
29775;DHT22;16676;51.202;6.774;2023-04-12T22:58:05;18.40;71.90
29775;DHT22;16676;51.202;6.774;2023-04-12T23:02:08;18.40;71.80
29775;DHT22;16676;51.202;6.774;2023-04-12T23:06:11;18.40;71.60
29775;DHT22;16676;51.202;6.774;2023-04-12T23:10:13;18.40;71.60
29775;DHT22;16676;51.202;6.774;2023-04-12T23:14:15;18.40;71.60
29775;DHT22;16676;51.202;6.774;2023-04-12T23:18:18;18.40;71.60
29775;DHT22;16676;51.202;6.774;2023-04-12T23:22:21;18.30;71.50
29775;DHT22;16676;51.202;6.774;2023-04-12T23:26:33;18.30;71.50
29775;DHT22;16676;51.202;6.774;2023-04-12T23:30:35;18.30;71.30
29775;DHT22;16676;51.202;6.774;2023-04-12T23:34:37;18.30;71.30
29775;DHT22;16676;51.202;6.774;2023-04-12T23:38:40;18.30;71.20
29775;DHT22;16676;51.202;6.774;2023-04-12T23:42:45;18.30;71.10
29775;DHT22;16676;51.202;6.774;2023-04-12T23:46:48;18.30;71.10
29775;DHT22;16676;51.202;6.774;2023-04-12T23:50:50;18.30;70.90
29775;DHT22;16676;51.202;6.774;2023-04-12T23:54:53;18.20;70.80
29775;DHT22;16676;51.202;6.774;2023-04-12T23:58:55;18.20;70.90
